• Join FlightAware (Why Join?)
  • Login
  • US Flag 
12:25PM EDT


 

Airport Tracker/Info


-or-


 

Live Flight TrackerFlight Track Log ✈ EIN104 ✈ 22-Jan-2014 ✈ KJFK - EIDW / DUB

Flight Track Log - Related Links

Times and Time Zones

All times are in EST time to prevent confusion due to time zone crossing. See the EIN104 flight status page for this flight to view local times or setup timezone preferences in your user account.

Time Position Orientation Groundspeed Altitude Reporting Facility
EST Latitude Longitude Course Direction KTS MPH feet Rate Location/Type
05:44PM 40.8183 -73.5198 13° North 312 359 11,300  Level FlightAware ADS-B (KSNC)
05:45PM 40.8877 -73.4986 13° North 335 386 13,100 2,580 Climbing FlightAware ADS-B (KSNC)
05:45PM 40.9491 -73.4796 13° North 345 397 15,000 2,460 Climbing FlightAware ADS-B (KSNC)
05:46PM 41.0099 -73.4608 13° North 366 421 16,400 2,220 Climbing FlightAware ADS-B (KSNC)
05:47PM 41.0801 -73.4389 13° North 377 434 18,000 2,340 Climbing FlightAware ADS-B (KSNC)
05:47PM 41.1463 -73.4183 13° North 389 448 19,600 2,220 Climbing FlightAware ADS-B (KSNC)
05:48PM 41.2184 -73.3959 13° North 399 459 21,100 2,160 Climbing FlightAware ADS-B (KSNC)
05:49PM 41.2919 -73.3790 10° North 400 460 22,600 2,040 Climbing FlightAware ADS-B (KSNC)
05:49PM 41.3661 -73.3734 North 410 472 23,800 1,920 Climbing FlightAware ADS-B (KSNC)
05:50PM 41.4490 -73.3664 North 416 479 25,200 1,800 Climbing FlightAware ADS-B (KSNC)
05:51PM 41.5270 -73.3599 North 425 489 26,300 1,620 Climbing FlightAware ADS-B (KSNC)
05:51PM 41.6030 -73.3536 North 432 497 27,400 1,320 Climbing FlightAware ADS-B (KSNC)
05:52PM 41.6823 -73.3470 North 446 513 28,100 1,260 Climbing FlightAware ADS-B (KSNC)
05:53PM 41.7680 -73.3397 North 451 519 29,100 1,680 Climbing FlightAware ADS-B (KSNC)
05:53PM 41.8308 -73.3343 North 448 516 30,300 1,260 Climbing FlightAware ADS-B (KSNC)
05:55PM 42.0239 -73.3180 North 469 540 31,700 960 Climbing FlightAware ADS-B (KSNC)
05:55PM 42.0953 -73.3119 North 474 545 32,400 1,140 Climbing FlightAware ADS-B (KSNC)
05:56PM 42.1510 -73.2985 10° North 483 556 32,900 960 Climbing FlightAware ADS-B (KSNC)
05:56PM 42.1982 -73.2679 26° Northeast 496 571 33,100 900 Climbing FlightAware ADS-B (KSNC)
05:57PM 42.2672 -73.1946 38° Northeast 499 574 33,800 780 Climbing FlightAware ADS-B (KSNC)
06:01PM 42.7471 -72.6931 37° Northeast 520 598 37,000 480 Climbing FlightAware ADS-B (KSNC)
06:03PM 42.9587 -72.4703 38° Northeast 522 601 37,000  Level FlightAware ADS-B (KSNC)
06:05PM 43.1804 -72.2350 38° Northeast 519 597 37,000  Level FlightAware ADS-B (KSNC)
06:05PM 43.2489 -72.1619 38° Northeast 518 596 37,000  Level FlightAware ADS-B (KSNC)
06:06PM 43.3436 -72.0602 38° Northeast 512 589 37,000  Level FlightAware ADS-B (KBOS)
06:07PM 43.4115 -71.9873 38° Northeast 520 598 37,000  Level FlightAware ADS-B (KBOS)
06:07PM 43.4220 -71.9770 36° Northeast 521 600 37,000  Level FlightAware ADS-B
06:07PM 43.4829 -71.9103 38° Northeast 520 598 37,000  Level FlightAware ADS-B (KBOS)
06:08PM 43.5501 -71.8374 38° Northeast 521 600 37,000  Level FlightAware ADS-B (KBOS)
06:09PM 43.6409 -71.7389 38° Northeast 520 598 37,000  Level FlightAware ADS-B (KBOS)
06:09PM 43.7196 -71.6533 38° Northeast 523 602 37,000  Level FlightAware ADS-B (KBOS)
06:10PM 43.7370 -71.6340 39° Northeast 523 602 37,000  Level FlightAware ADS-B
06:10PM 43.8054 -71.5593 38° Northeast 520 598 37,000  Level FlightAware ADS-B (KBOS)
06:10PM 43.8170 -71.5460 40° Northeast 520 598 37,000  Level FlightAware ADS-B
06:11PM 43.8740 -71.4840 38° Northeast 520 598 37,000  Level FlightAware ADS-B
06:11PM 43.8790 -71.4786 38° Northeast 519 597 37,000  Level FlightAware ADS-B (KBOS)
06:11PM 43.9420 -71.4100 38° Northeast 522 601 37,000  Level FlightAware ADS-B
06:12PM 43.9642 -71.3847 39° Northeast 519 597 37,000  Level FlightAware ADS-B (KBOS)
06:12PM 43.9960 -71.3500 38° Northeast 523 602 37,000  Level FlightAware ADS-B
06:12PM 44.0394 -71.3016 39° Northeast 522 601 37,000  Level FlightAware ADS-B (KBOS)
06:14PM 44.1940 -71.1300 38° Northeast 521 600 37,000  Level FlightAware ADS-B
06:14PM 44.1933 -71.1305 205° Southwest 519 597 37,000  Level FlightAware ADS-B (CYSG)
06:15PM 44.3730 -70.9300 39° Northeast 521 600 37,000  Level FlightAware ADS-B
06:15PM 44.3938 -70.9060 40° Northeast 521 600 37,000  Level FlightAware ADS-B (CYSG)
06:16PM 44.4532 -70.8390 39° Northeast 521 600 37,000  Level FlightAware ADS-B (CYSG)
06:17PM 44.5771 -70.6990 39° Northeast 522 601 37,000  Level FlightAware ADS-B (CYSG)
06:18PM 44.6314 -70.6372 39° Northeast 522 601 37,000  Level FlightAware ADS-B (KBOS)
06:18PM 44.7088 -70.5490 39° Northeast 521 600 37,000  Level FlightAware ADS-B (KBOS)
06:19PM 44.7663 -70.4832 39° Northeast 522 601 37,000  Level FlightAware ADS-B (CYSG)
06:19PM 44.8494 -70.3880 39° Northeast 522 601 37,000  Level FlightAware ADS-B (CYSG)
06:20PM 44.9041 -70.3250 39° Northeast 522 601 37,000  Level FlightAware ADS-B (CYSG)
06:21PM 44.9812 -70.2361 39° Northeast 522 601 37,000  Level FlightAware ADS-B (CYSG)
06:21PM 45.0534 -70.1527 39° Northeast 520 598 37,000  Level FlightAware ADS-B (CYSG)
06:22PM 45.1235 -70.0711 39° Northeast 517 595 37,000  Level FlightAware ADS-B (CYSG)
06:23PM 45.2030 -69.9784 39° Northeast 517 595 37,000  Level FlightAware ADS-B (CYSG)
06:23PM 45.2609 -69.9105 40° Northeast 517 595 37,000  Level FlightAware ADS-B (KBGR)
06:24PM 45.2609 -69.9105 40° Northeast 518 596 37,000  Level FlightAware ADS-B (KBGR)
06:25PM 45.4879 -69.6433 39° Northeast 519 597 37,000  Level FlightAware ADS-B (CYSG)
06:26PM 45.5812 -69.5326 40° Northeast 518 596 37,000  Level FlightAware ADS-B (CYSG)
06:27PM 45.6568 -69.4425 40° Northeast 516 594 37,000  Level FlightAware ADS-B (CYSG)
06:27PM 45.6940 -69.3982 40° Northeast 517 595 37,000  Level FlightAware ADS-B (KBGR)
06:28PM 45.7703 -69.3065 40° Northeast 516 594 37,000  Level FlightAware ADS-B (KBGR)
06:29PM 45.8497 -69.2111 40° Northeast 517 595 37,000  Level FlightAware ADS-B (CYSG)
06:29PM 45.9184 -69.1282 40° Northeast 520 598 37,000  Level FlightAware ADS-B (CYSG)
06:30PM 45.9592 -69.0789 40° Northeast 520 598 37,000  Level FlightAware ADS-B (CYSG)
06:31PM 46.0892 -68.9210 40° Northeast 517 595 37,000  Level FlightAware ADS-B (CYSG)
06:32PM 46.1989 -68.7867 40° Northeast 516 594 37,000  Level FlightAware ADS-B (CYSG)
06:32PM 46.2702 -68.6992 40° Northeast 516 594 37,000  Level FlightAware ADS-B (CYSG)
06:33PM 46.3879 -68.5539 40° Northeast 516 594 37,000  Level FlightAware ADS-B (CYSG)
06:34PM 46.4489 -68.4784 40° Northeast 516 594 37,000  Level FlightAware ADS-B (CYSG)
06:35PM 46.5508 -68.3516 41° Northeast 516 594 37,000  Level FlightAware ADS-B (CYSG)
06:36PM 46.6409 -68.2391 41° Northeast 517 595 37,000  Level FlightAware ADS-B (CYSG)
06:37PM 46.7269 -68.1310 41° Northeast 517 595 37,000  Level FlightAware ADS-B (KBGR)
06:37PM 46.8254 -68.0067 41° Northeast 521 600 37,000  Level FlightAware ADS-B (CYSG)
06:39PM 46.9615 -67.8339 41° Northeast 523 602 37,000  Level FlightAware ADS-B (CYSG)
06:40PM 47.0687 -67.6969 41° Northeast 524 603 37,000  Level FlightAware ADS-B (CYSG)
06:40PM 47.0986 -67.6586 41° Northeast 523 602 37,000  Level Boston Center
06:41PM 47.2081 -67.5167 41° Northeast 523 602 37,000  Level Boston Center
06:42PM 47.3400 -67.3458 41° Northeast 525 604 37,000  Level Boston Center
06:44PM 47.4500 -67.1500 50° Northeast 520 598 37,000  Level Moncton Center
06:45PM 47.5500 -66.9500 53° Northeast 520 598 37,000  Level Moncton Center
06:46PM 47.6333 -66.8000 50° Northeast 520 598 37,000  Level Moncton Center
06:47PM 47.7333 -66.6167 51° Northeast 520 598 37,000  Level Moncton Center
06:48PM 47.8167 -66.4667 50° Northeast 520 598 37,000  Level Moncton Center
06:49PM 47.9167 -66.3000 48° Northeast 520 598 37,000  Level Moncton Center
06:50PM 48.0000 -66.1167 56° Northeast 520 598 37,000  Level Moncton Center
06:51PM 48.0833 -65.9500 53° Northeast 520 598 37,000  Level Moncton Center
06:52PM 48.1833 -65.7833 48° Northeast 520 598 37,000  Level Moncton Center
06:53PM 48.2667 -65.6000 56° Northeast 520 598 37,000  Level Moncton Center
06:54PM 48.3500 -65.4333 53° Northeast 510 587 37,000  Level Moncton Center
06:55PM 48.4333 -65.2833 50° Northeast 510 587 37,000  Level Moncton Center
06:56PM 48.5333 -65.0833 53° Northeast 520 598 37,000  Level Moncton Center
06:57PM 48.6167 -64.9333 50° Northeast 520 598 37,000  Level Moncton Center
06:58PM 48.7000 -64.7500 55° Northeast 520 598 37,000  Level Moncton Center
06:59PM 48.7833 -64.5667 55° Northeast 520 598 37,000  Level Moncton Center
07:00PM 48.8833 -64.4000 48° Northeast 520 598 37,000  Level Moncton Center
07:01PM 48.9667 -64.2167 55° Northeast 520 598 37,000  Level Moncton Center
07:02PM 49.0500 -64.0333 55° Northeast 520 598 37,000  Level Moncton Center
07:03PM 49.1333 -63.8667 53° Northeast 530 610 37,000  Level Moncton Center
07:04PM 49.2333 -63.6833 50° Northeast 520 598 37,000  Level Moncton Center
07:04PM 49.3000 -63.5667 49° Northeast 530 610 37,000  Level Gander Center
07:05PM 49.3833 -63.3833 55° Northeast 530 610 37,000  Level Gander Center
07:06PM 49.4667 -63.1833 57° Northeast 520 598 37,000  Level Gander Center
07:07PM 49.5500 -63.0167 52° Northeast 530 610 37,000  Level Gander Center
07:08PM 49.6333 -62.8333 55° Northeast 520 598 37,000  Level Gander Center
07:09PM 49.7333 -62.6500 50° Northeast 530 610 37,000  Level Gander Center
07:10PM 49.8167 -62.4500 57° Northeast 520 598 37,000  Level Gander Center
07:11PM 49.9000 -62.2667 55° Northeast 520 598 37,000  Level Gander Center
07:13PM 50.0000 -62.0333 56° Northeast 530 610 37,000  Level Moncton Center
07:13PM 50.0667 -61.9000 52° Northeast 530 610 37,000  Level Gander Center
07:14PM 50.1500 -61.7000 57° Northeast 530 610 37,000  Level Gander Center
07:15PM 50.2333 -61.5167 55° Northeast 520 598 37,000  Level Gander Center
07:16PM 50.3000 -61.3333 60° Northeast 520 598 37,000  Level Gander Center
07:17PM 50.4000 -61.1500 49° Northeast 520 598 37,000  Level Gander Center
07:18PM 50.4667 -60.9667 60° Northeast 520 598 37,000  Level Gander Center
07:19PM 50.5667 -60.7500 54° Northeast 510 587 37,000  Level Gander Center
07:20PM 50.6333 -60.5667 60° Northeast 530 610 37,000  Level Gander Center
07:21PM 50.7167 -60.3833 54° Northeast 530 610 37,000  Level Gander Center
07:22PM 50.8000 -60.2000 54° Northeast 520 598 37,000  Level Gander Center
07:23PM 50.8833 -60.0167 54° Northeast 530 610 37,000  Level Gander Center
07:24PM 50.9667 -59.8167 56° Northeast 520 598 37,000  Level Gander Center
07:25PM 51.0500 -59.6333 54° Northeast 520 598 37,000  Level Gander Center
07:26PM 51.1167 -59.4167 64° Northeast 520 598 37,000  Level Gander Center
07:27PM 51.2000 -59.2333 54° Northeast 520 598 37,000  Level Gander Center
07:28PM 51.2833 -59.0333 56° Northeast 530 610 37,000  Level Gander Center
07:29PM 51.3667 -58.8500 54° Northeast 520 598 37,000  Level Gander Center
07:30PM 51.4500 -58.6500 56° Northeast 530 610 37,000  Level Gander Center
07:31PM 51.5167 -58.4333 64° Northeast 540 621 37,000  Level Gander Center
07:32PM 51.6000 -58.2333 56° Northeast 530 610 37,000  Level Gander Center
07:33PM 51.6833 -58.0167 58° Northeast 530 610 37,000  Level Gander Center
07:34PM 51.7500 -57.8167 62° Northeast 530 610 37,000  Level Gander Center
07:35PM 51.8333 -57.6000 58° Northeast 530 610 37,000  Level Gander Center
07:36PM 51.9167 -57.4000 56° Northeast 530 610 37,000  Level Gander Center
07:37PM 51.9833 -57.1833 63° Northeast 540 621 37,000  Level Gander Center
07:38PM 52.0667 -56.9833 56° Northeast 540 621 37,000  Level Gander Center
07:39PM 52.1333 -56.7500 65° Northeast 540 621 37,000  Level Gander Center
07:40PM 52.2167 -56.5667 53° Northeast 550 633 37,000  Level Gander Center
07:41PM 52.2833 -56.3667 61° Northeast 550 633 37,000  Level Gander Center
07:42PM 52.3667 -56.1333 60° Northeast 540 621 37,000  Level Gander Center
07:43PM 52.4333 -55.9333 61° Northeast 550 633 37,000 300 Level Gander Center
07:44PM 52.5167 -55.7000 60° Northeast 550 633 37,700 540 Climbing Gander Center
07:45PM 52.5833 -55.4667 65° Northeast 560 644 38,100 420 Climbing Gander Center
07:46PM 52.6833 -55.2333 55° Northeast 570 656 38,600 420 Climbing Gander Center
07:47PM 52.7500 -55.0000 65° Northeast 570 656 39,000 180 Climbing Gander Center
07:48PM 52.8333 -54.7667 59° Northeast 570 656 39,000  Level Gander Center
07:49PM 52.9000 -54.5667 61° Northeast 580 667 39,000  Level Gander Center
07:51PM 53.0500 -54.0667 63° Northeast 580 667 39,000  Level Gander Center
07:52PM 53.1000 -53.9000 63° Northeast 580 667 39,000  Level Gander Center
07:53PM 53.1667 -53.6333 67° East 580 667 39,000  Level Gander Center
07:54PM 53.2167 -53.4000 70° East 580 667 39,000  Level Gander Center
07:55PM 53.2833 -53.1333 67° East 580 667 39,000  Level Gander Center
07:56PM 53.3333 -52.9000 70° East 580 667 39,000  Level Gander Center
07:57PM 53.4000 -52.6333 67° East 580 667 39,000  Level Gander Center
07:58PM 53.4667 -52.3667 67° East 580 667 39,000  Level Gander Center
07:59PM 53.5167 -52.1333 70° East 580 667 39,000  Level Gander Center
08:00PM 53.5667 -51.8667 72° East 580 667 39,000  Level Gander Center
08:01PM 53.6333 -51.6000 67° East 590 679 39,000  Level Gander Center
08:02PM 53.7000 -51.3500 66° East 590 679 39,000  Level Gander Center
08:03PM 53.7333 -51.0833 78° East 590 679 39,000  Level Gander Center
08:04PM 53.8167 -50.8167 62° Northeast 600 690 39,000  Level Gander Center
08:06PM 53.9167 -50.2667 73° East 600 690 39,000  Level Gander Center
08:07PM 53.9667 -50.0000 72° East 600 690 39,000  Level Gander Center
08:08PM 54.0000 -49.7333 78° East 600 690 39,000 -60 Level Gander Center
08:11PM 54.0704 -49.3166 74° East  Level FlightAware Approximate
08:18PM 54.3030 -47.6372 77° East  Level FlightAware Approximate
08:19PM 54.3324 -47.3952 78° East  Level FlightAware Approximate
08:20PM 54.3613 -47.1529 78° East  Level FlightAware Approximate
08:21PM 54.3897 -46.9103 79° East  Level FlightAware Approximate
08:22PM 54.4176 -46.6673 79° East  Level FlightAware Approximate
08:23PM 54.4450 -46.4240 79° East  Level FlightAware Approximate
08:24PM 54.4720 -46.1804 79° East  Level FlightAware Approximate
08:25PM 54.4984 -45.9364 79° East  Level FlightAware Approximate
08:26PM 54.5244 -45.6922 80° East  Level FlightAware Approximate
08:27PM 54.5499 -45.4476 80° East  Level FlightAware Approximate
08:28PM 54.5748 -45.2027 80° East  Level FlightAware Approximate
08:29PM 54.5992 -44.9575 80° East  Level FlightAware Approximate
08:30PM 54.6231 -44.7120 80° East  Level FlightAware Approximate
08:31PM 54.6465 -44.4663 81° East  Level FlightAware Approximate
08:32PM 54.6694 -44.2202 81° East  Level FlightAware Approximate
08:33PM 54.6918 -43.9739 81° East  Level FlightAware Approximate
08:34PM 54.7137 -43.7273 81° East  Level FlightAware Approximate
08:35PM 54.7351 -43.4804 81° East  Level FlightAware Approximate
08:36PM 54.7560 -43.2333 82° East  Level FlightAware Approximate
08:37PM 54.7764 -42.9860 82° East  Level FlightAware Approximate
08:38PM 54.7973 -42.7386 81° East  Level FlightAware Approximate
08:39PM 54.8182 -42.4911 82° East  Level FlightAware Approximate
08:40PM 54.8387 -42.2434 82° East  Level FlightAware Approximate
08:41PM 54.8586 -41.9954 82° East  Level FlightAware Approximate
08:42PM 54.8780 -41.7472 82° East  Level FlightAware Approximate
08:43PM 54.8969 -41.4987 82° East  Level FlightAware Approximate
08:44PM 54.9154 -41.2500 83° East  Level FlightAware Approximate
08:45PM 54.9333 -41.0011 83° East  Level FlightAware Approximate
08:46PM 54.9507 -40.7519 83° East  Level FlightAware Approximate
08:47PM 54.9676 -40.5026 83° East  Level FlightAware Approximate
08:48PM 54.9839 -40.2530 83° East  Level FlightAware Approximate
08:49PM 54.9998 -40.0033 84° East  Level FlightAware Approximate
08:50PM 55.0337 -39.7589 76° East  Level FlightAware Approximate
08:51PM 55.0675 -39.5143 76° East  Level FlightAware Approximate
08:52PM 55.1007 -39.2692 77° East  Level FlightAware Approximate
08:53PM 55.1334 -39.0237 77° East  Level FlightAware Approximate
08:54PM 55.1656 -38.7778 77° East  Level FlightAware Approximate
08:55PM 55.1974 -38.5315 77° East  Level FlightAware Approximate
08:56PM 55.2286 -38.2849 77° East  Level FlightAware Approximate
08:57PM 55.2594 -38.0378 78° East  Level FlightAware Approximate
08:58PM 55.2896 -37.7904 78° East  Level FlightAware Approximate
08:59PM 55.3194 -37.5426 78° East  Level FlightAware Approximate
09:00PM 55.3486 -37.2944 78° East  Level FlightAware Approximate
09:01PM 55.3773 -37.0458 78° East  Level FlightAware Approximate
09:02PM 55.4056 -36.7969 79° East  Level FlightAware Approximate
09:03PM 55.4333 -36.5477 79° East  Level FlightAware Approximate
09:04PM 55.4605 -36.2981 79° East  Level FlightAware Approximate
09:05PM 55.4872 -36.0481 79° East  Level FlightAware Approximate
09:06PM 55.5134 -35.7979 79° East  Level FlightAware Approximate
09:07PM 55.5402 -35.5476 79° East  Level FlightAware Approximate
09:08PM 55.5667 -35.2971 79° East  Level FlightAware Approximate
09:09PM 55.5926 -35.0462 80° East  Level FlightAware Approximate
09:10PM 55.6180 -34.7950 80° East  Level FlightAware Approximate
09:11PM 55.6429 -34.5434 80° East  Level FlightAware Approximate
09:12PM 55.6673 -34.2916 80° East  Level FlightAware Approximate
09:13PM 55.6911 -34.0395 80° East  Level FlightAware Approximate
09:14PM 55.7145 -33.7870 81° East  Level FlightAware Approximate
09:15PM 55.7373 -33.5342 81° East  Level FlightAware Approximate
09:16PM 55.7596 -33.2812 81° East  Level FlightAware Approximate
09:17PM 55.7814 -33.0279 81° East  Level FlightAware Approximate
09:18PM 55.8027 -32.7742 81° East  Level FlightAware Approximate
09:19PM 55.8234 -32.5203 82° East  Level FlightAware Approximate
09:20PM 55.8436 -32.2662 82° East  Level FlightAware Approximate
09:21PM 55.8633 -32.0118 82° East  Level FlightAware Approximate
09:22PM 55.8825 -31.7571 82° East  Level FlightAware Approximate
09:23PM 55.9011 -31.5022 82° East  Level FlightAware Approximate
09:24PM 55.9193 -31.2470 83° East  Level FlightAware Approximate
09:25PM 55.9369 -30.9916 83° East  Level FlightAware Approximate
09:26PM 55.9539 -30.7360 83° East  Level FlightAware Approximate
09:27PM 55.9704 -30.4801 83° East  Level FlightAware Approximate
09:28PM 55.9864 -30.2241 84° East  Level FlightAware Approximate
09:29PM 56.0013 -29.9677 86° East  Level FlightAware Approximate
09:30PM 56.0114 -29.7105 86° East  Level FlightAware Approximate
09:31PM 56.0210 -29.4532 86° East  Level FlightAware Approximate
09:32PM 56.0300 -29.1957 86° East  Level FlightAware Approximate
09:33PM 56.0385 -28.9381 87° East  Level FlightAware Approximate
09:34PM 56.0464 -28.6804 87° East  Level FlightAware Approximate
09:35PM 56.0538 -28.4226 87° East  Level FlightAware Approximate
09:36PM 56.0607 -28.1647 87° East  Level FlightAware Approximate
09:37PM 56.0670 -27.9068 87° East  Level FlightAware Approximate
09:38PM 56.0728 -27.6487 88° East  Level FlightAware Approximate
09:39PM 56.0781 -27.3906 88° East  Level FlightAware Approximate
09:40PM 56.0828 -27.1324 88° East  Level FlightAware Approximate
09:41PM 56.0870 -26.8741 88° East  Level FlightAware Approximate
09:42PM 56.0906 -26.6158 88° East  Level FlightAware Approximate
09:43PM 56.0937 -26.3575 89° East  Level FlightAware Approximate
09:44PM 56.0963 -26.0991 89° East  Level FlightAware Approximate
09:45PM 56.0983 -25.8406 89° East  Level FlightAware Approximate
09:46PM 56.0998 -25.5822 89° East  Level FlightAware Approximate
09:47PM 56.1008 -25.3237 90° East  Level FlightAware Approximate
09:48PM 56.1012 -25.0652 90° East  Level FlightAware Approximate
09:49PM 56.1011 -24.8068 90° East  Level FlightAware Approximate
09:50PM 56.1004 -24.5483 90° East  Level FlightAware Approximate
09:51PM 56.0992 -24.2898 90° East  Level FlightAware Approximate
09:52PM 56.0974 -24.0314 91° East  Level FlightAware Approximate
09:53PM 56.0951 -23.7730 91° East  Level FlightAware Approximate
09:54PM 56.0923 -23.5146 91° East  Level FlightAware Approximate
09:55PM 56.0889 -23.2563 91° East  Level FlightAware Approximate
09:56PM 56.0850 -22.9980 91° East  Level FlightAware Approximate
09:57PM 56.0806 -22.7397 92° East  Level FlightAware Approximate
09:58PM 56.0756 -22.4816 92° East  Level FlightAware Approximate
09:59PM 56.0701 -22.2235 92° East  Level FlightAware Approximate
10:00PM 56.0640 -21.9655 92° East  Level FlightAware Approximate
10:01PM 56.0574 -21.7075 93° East  Level FlightAware Approximate
10:02PM 56.0502 -21.4497 93° East  Level FlightAware Approximate
10:03PM 56.0426 -21.1919 93° East  Level FlightAware Approximate
10:04PM 56.0343 -20.9343 93° East  Level FlightAware Approximate
10:05PM 56.0256 -20.6768 93° East  Level FlightAware Approximate
10:06PM 56.0163 -20.4194 94° East  Level FlightAware Approximate
10:07PM 56.0065 -20.1621 94° East  Level FlightAware Approximate
10:08PM 55.9885 -19.9070 102° East  Level FlightAware Approximate
10:09PM 55.9569 -19.6556 103° East  Level FlightAware Approximate
10:10PM 55.9248 -19.4047 103° East  Level FlightAware Approximate
10:11PM 55.8922 -19.1542 103° East  Level FlightAware Approximate
10:12PM 55.8591 -18.9040 103° East  Level FlightAware Approximate
10:13PM 55.8255 -18.6544 103° East  Level FlightAware Approximate
10:14PM 55.7914 -18.4051 104° East  Level FlightAware Approximate
10:15PM 55.7568 -18.1563 104° East  Level FlightAware Approximate
10:16PM 55.7217 -17.9079 104° East  Level FlightAware Approximate
10:17PM 55.6861 -17.6600 104° East  Level FlightAware Approximate
10:18PM 55.6499 -17.4126 104° East  Level FlightAware Approximate
10:19PM 55.6139 -17.1653 104° East  Level FlightAware Approximate
10:20PM 55.5778 -16.9183 104° East  Level FlightAware Approximate
10:21PM 55.5412 -16.6718 105° East  Level FlightAware Approximate
10:22PM 55.5041 -16.4257 105° East  Level FlightAware Approximate
10:23PM 55.4665 -16.1801 105° East  Level FlightAware Approximate
10:24PM 55.4295 -15.9427 106° East  Level FlightAware Approximate
10:25PM 55.3915 -15.7061 106° East  Level FlightAware Approximate
10:26PM 55.3530 -15.4700 106° East  Level FlightAware Approximate
10:27PM 55.3141 -15.2343 106° East  Level FlightAware Approximate
10:28PM 55.2747 -14.9991 106° East  Level FlightAware Approximate
10:29PM 55.2348 -14.7643 106° East  Level FlightAware Approximate
10:30PM 55.1945 -14.5300 107° East  Level FlightAware Approximate
10:31PM 55.1538 -14.2962 107° East  Level FlightAware Approximate
10:32PM 55.1126 -14.0629 107° East  Level FlightAware Approximate
10:33PM 55.0710 -13.8301 107° East  Level FlightAware Approximate
10:34PM 55.0289 -13.5977 107° East  Level FlightAware Approximate
10:35PM 54.9864 -13.3658 108° East  Level FlightAware Approximate
10:36PM 54.9434 -13.1345 108° East  Level FlightAware Approximate
10:36PM 54.3816 -9.1222 108° East 528 608 37,300  Level FlightAware ADS-B (EICK / ORK)
10:37PM 54.3289 -8.9561 108° East 464 534 33,600 -5,100 Descending FlightAware UK
10:37PM 54.3183 -8.9229 108° East 578 665 32,900 -2,940 Descending FlightAware ADS-B (EICK / ORK)
10:38PM 54.2428 -8.6881 108° East 444 511 30,400 -2,940 Descending FlightAware UK
10:38PM 54.2257 -8.6351 108° East 603 694 29,500 -2,520 Descending FlightAware ADS-B (EICK / ORK)
10:39PM 54.1621 -8.4388 108° East 436 502 27,900 -1,920 Descending FlightAware UK
10:39PM 54.1579 -8.4263 108° East 584 672 27,900 -1,200 Level FlightAware ADS-B (EICK / ORK)
10:39PM 54.1116 -8.2846 119° Southeast 568 654 27,100 -2,040 Descending FlightAware ADS-B
10:40PM 54.0579 -8.1214 119° Southeast 566 651 25,300 -2,340 Descending FlightAware ADS-B
10:41PM 54.0076 -7.9701 119° Southeast 420 483 24,000 -2,100 Descending FlightAware UK
10:41PM 53.9990 -7.9438 119° Southeast 553 636 23,700 -1,500 Descending FlightAware ADS-B
10:41PM 53.9548 -7.8113 120° Southeast 530 610 22,900 -1,680 Descending FlightAware ADS-B (EGAA / BFS)
10:42PM 53.9066 -7.6677 120° Southeast 514 592 21,600 -1,920 Descending FlightAware ADS-B (EGAA / BFS)
10:43PM 53.8760 -7.5634 116° Southeast 499 574 20,700 -2,040 Descending FlightAware ADS-B
10:43PM 53.8408 -7.4180 112° Southeast 487 560 19,200 -2,400 Descending FlightAware ADS-B
10:44PM 53.8125 -7.3038 112° Southeast 392 451 17,800 -2,700 Descending FlightAware UK
10:44PM 53.8110 -7.2966 112° Southeast 485 558 17,200 -1,560 Descending FlightAware ADS-B
10:45PM 53.7738 -7.1458 113° Southeast 456 525 16,600 -1,320 Descending FlightAware ADS-B (EGAA / BFS)
10:45PM 53.7492 -7.0465 113° Southeast 440 506 15,800 -1,680 Descending FlightAware ADS-B
10:46PM 53.7154 -6.9123 113° Southeast 370 426 14,600 -1,740 Descending FlightAware UK
10:46PM 53.7128 -6.9010 113° Southeast 425 489 14,500 -1,800 Descending FlightAware ADS-B
10:47PM 53.6808 -6.7740 113° Southeast 414 476 13,200 -2,640 Descending FlightAware ADS-B (EGAA / BFS)
10:47PM 53.6574 -6.6818 113° Southeast 409 471 11,200 -2,640 Descending FlightAware ADS-B (EGAA / BFS)
10:48PM 53.6269 -6.5625 113° Southeast 316 364 10,000 -1,680 Descending FlightAware UK
10:48PM 53.6275 -6.5639 113° Southeast 367 422 10,100 -1,260 Climbing FlightAware ADS-B (EGAA / BFS)
10:48PM 53.6122 -6.5035 113° Southeast 336 387 9,500 -1,800 Descending FlightAware ADS-B (EIDW / DUB)
10:49PM 53.6005 -6.4581 113° Southeast 323 372 8,800 -2,160 Descending FlightAware ADS-B (EIDW / DUB)
10:49PM 53.5964 -6.4420 113° Southeast 318 366 8,100 -2,280 Descending FlightAware ADS-B (EIDW / DUB)
10:49PM 53.5792 -6.3748 113° Southeast 314 361 7,400 -2,520 Descending FlightAware ADS-B (EIDW / DUB)
10:49PM 53.5698 -6.3382 113° Southeast 309 356 6,700 -2,040 Descending FlightAware ADS-B (EGAA / BFS)
10:50PM 53.5604 -6.3018 113° Southeast 293 337 6,300 -1,320 Descending FlightAware ADS-B (EGAA / BFS)
10:50PM 53.5499 -6.2607 113° Southeast 279 321 5,900 -1,500 Descending FlightAware ADS-B (EGAA / BFS)
10:51PM 53.5354 -6.2051 114° Southeast 274 315 5,100 -1,680 Descending FlightAware ADS-B (EIDW / DUB)
10:51PM 53.5244 -6.1625 113° Southeast 274 315 4,500 -1,740 Descending FlightAware ADS-B (EIDW / DUB)
10:51PM 53.5144 -6.1238 114° Southeast 271 312 3,900 -1,500 Descending FlightAware ADS-B (EIDW / DUB)
10:52PM 53.5043 -6.0853 114° Southeast 266 306 3,500 -960 Descending FlightAware ADS-B (EIDW / DUB)
10:52PM 53.4951 -6.0495 114° Southeast 258 297 3,300 -480 Descending FlightAware ADS-B (EIDW / DUB)
10:52PM 53.4858 -6.0139 114° Southeast 254 292 3,200 -180 Descending FlightAware ADS-B (EIDW / DUB)
10:53PM 53.4762 -5.9773 114° Southeast 249 287 3,200  Level FlightAware ADS-B (EIDW / DUB)
10:53PM 53.4646 -5.9327 114° Southeast 225 259 3,200  Level FlightAware ADS-B (EIDW / DUB)
10:54PM 53.4507 -5.8801 114° Southeast 225 259 3,200  Level FlightAware ADS-B (EIDW / DUB)
10:54PM 53.4370 -5.8537 131° Southeast 210 242 3,200  Level FlightAware ADS-B (EIDW / DUB)
10:54PM 53.4290 -5.8497 163° South 190 219 3,200  Level FlightAware ADS-B (EIDW / DUB)
10:56PM 53.4023 -5.9374 243° Southwest 148 170 3,200  Level FlightAware ADS-B (EIDW / DUB)
10:56PM 53.4035 -5.9595 276° West 145 167 3,200  Level FlightAware ADS-B (EIDW / DUB)
10:56PM 53.4049 -5.9803 276° West 144 166 3,200  Level FlightAware ADS-B (EIDW / DUB)
10:57PM 53.4065 -6.0051 276° West 140 161 3,200 -180 Level FlightAware ADS-B (EIDW / DUB)
10:57PM 53.4077 -6.0249 276° West 137 158 3,100 -480 Descending FlightAware ADS-B (EIDW / DUB)
10:57PM 53.4087 -6.0437 275° West 132 152 2,900 -780 Descending FlightAware ADS-B (EIDW / DUB)
10:58PM 53.4099 -6.0662 275° West 122 140 2,600 -780 Descending FlightAware ADS-B (EIDW / DUB)
10:58PM 53.4110 -6.0851 276° West 119 137 2,400 -660 Descending FlightAware ADS-B (EIDW / DUB)
10:58PM 53.4120 -6.1029 275° West 122 140 2,200 -780 Descending FlightAware ADS-B (EIDW / DUB)
10:59PM 53.4131 -6.1217 276° West 125 144 1,900 -780 Descending FlightAware ADS-B (EIDW / DUB)
10:59PM 53.4142 -6.1412 275° West 124 143 1,700 -660 Descending FlightAware ADS-B (EIDW / DUB)
10:59PM 53.4150 -6.1560 275° West 122 140 1,500 -600 Descending FlightAware ADS-B (EIDW / DUB)
11:00PM 53.4163 -6.1771 276° West 121 139 1,300 -600 Descending FlightAware ADS-B (EIDW / DUB)
11:00PM 53.4173 -6.1958 275° West 124 143 1,100 -780 Descending FlightAware ADS-B (EIDW / DUB)
11:00PM 53.4183 -6.2139 275° West 129 148 800 -780 Descending FlightAware ADS-B (EIDW / DUB)
11:01PM 53.4193 -6.2338 275° West 126 145 600 -660 Descending FlightAware ADS-B (EIDW / DUB)
11:03PM 53.4167 -6.2667 116° Southeast  Level FlightAware Approximate
11:04PM 53.4213 -6.2701 116° Southeast  Level Estimated
11:05PM 53.4167 -6.2667 116° Southeast  Level FlightAware Approximate
11:06PM 53.4213 -6.2701 116° Southeast  Level Estimated
11:07PM 53.4167 -6.2667 116° Southeast  Level FlightAware Approximate
11:08PM 53.4213 -6.2701 116° Southeast  Level Estimated
11:09PM 53.4167 -6.2667 116° Southeast  Level FlightAware Approximate
11:10PM 53.4213 -6.2701 116° Southeast  Level Estimated
11:11PM 53.4167 -6.2667 116° Southeast  Level FlightAware Approximate
11:12PM 53.4213 -6.2701 116° Southeast  Level Estimated
11:13PM 53.4167 -6.2667 116° Southeast  Level FlightAware Approximate
11:14PM 53.4213 -6.2701 116° Southeast  Level Estimated
11:15PM 53.4167 -6.2667 116° Southeast  Level FlightAware Approximate
11:16PM 53.4213 -6.2701 116° Southeast  Level Estimated
11:17PM 53.4167 -6.2667 116° Southeast  Level FlightAware Approximate
11:18PM 53.4213 -6.2701 116° Southeast  Level Estimated
11:19PM 53.4167 -6.2667 116° Southeast  Level FlightAware Approximate
11:20PM 53.4213 -6.2701 116° Southeast  Level Estimated